Time;durP1;ratioP1;P1;durP2;ratioP2;P2;SDS_P1;SDS_P2;PMS_P1;PMS_P2;Temp;Humidity;BMP_temperature;BMP_pressure;BME280_temperature;BME280_humidity;BME280_pressure;Samples;Min_cycle;Max_cycle;Signal;HPM_P1;HPM_P2
2022/11/18 00:00:53;;;;;;;10.52;6.32;;;;;;;7.61;100.00;93641.53;5069235;28;20292;-74
2022/11/18 00:03:20;;;;;;;11.63;5.45;;;;;;;7.56;100.00;93628.25;5069776;28;20206;-74
2022/11/18 00:05:54;;;;;;;9.55;5.22;;;;;;;7.65;100.00;93626.28;5069482;28;20199;-74
2022/11/18 00:08:21;;;;;;;10.18;5.72;;;;;;;7.52;100.00;93621.97;5062257;28;20399;-75
2022/11/18 00:10:48;;;;;;;11.05;5.65;;;;;;;7.37;100.00;93628.78;5049498;28;20261;-74
2022/11/18 00:16:01;;;;;;;11.38;5.43;;;;;;;7.39;100.00;93628.44;5052322;28;20626;-75
2022/11/18 00:18:28;;;;;;;7.68;5.20;;;;;;;7.37;100.00;93636.06;5058549;28;20651;-74
2022/11/18 00:21:01;;;;;;;5.43;4.22;;;;;;;7.42;100.00;93633.16;5049314;28;20621;-75
2022/11/18 00:23:28;;;;;;;11.73;5.93;;;;;;;7.43;100.00;93634.72;5050168;28;20245;-74
2022/11/18 00:25:54;;;;;;;8.52;4.35;;;;;;;7.33;100.00;93619.78;5049402;28;20797;-73
2022/11/18 00:28:21;;;;;;;13.63;4.95;;;;;;;7.41;100.00;93626.19;5049107;28;20204;-74
2022/11/18 00:30:48;;;;;;;13.38;5.28;;;;;;;7.47;100.00;93622.19;5048661;28;20797;-74
2022/11/18 00:33:15;;;;;;;19.17;6.57;;;;;;;7.43;100.00;93623.97;5048930;28;20289;-74
2022/11/18 00:35:41;;;;;;;11.55;5.38;;;;;;;7.48;100.00;93629.16;5049009;28;20210;-74
2022/11/18 00:38:10;;;;;;;7.82;4.97;;;;;;;7.45;100.00;93627.13;5049422;28;20211;-73
2022/11/18 00:40:36;;;;;;;16.05;5.78;;;;;;;7.41;100.00;93623.50;5049149;28;20239;-73
2022/11/18 00:43:02;;;;;;;8.05;5.07;;;;;;;7.42;100.00;93623.16;5048844;28;20219;-75
2022/11/18 00:45:29;;;;;;;8.93;5.05;;;;;;;7.35;100.00;93625.63;5048263;28;20265;-75
2022/11/18 00:47:55;;;;;;;10.18;5.53;;;;;;;7.34;100.00;93625.97;5049045;28;20203;-75
2022/11/18 00:50:22;;;;;;;10.88;5.50;;;;;;;7.30;100.00;93630.44;5054980;28;20570;-74
2022/11/18 00:52:49;;;;;;;11.15;6.22;;;;;;;7.37;100.00;93630.69;5068805;28;20207;-74
2022/11/18 00:55:17;;;;;;;13.60;4.72;;;;;;;7.30;100.00;93631.22;5069272;28;20214;-74
2022/11/18 00:57:44;;;;;;;12.80;6.00;;;;;;;7.31;100.00;93623.91;5068357;28;20214;-74
2022/11/18 01:00:11;;;;;;;6.25;4.07;;;;;;;7.34;100.00;93621.38;5067986;28;20306;-74
2022/11/18 01:02:38;;;;;;;8.13;4.57;;;;;;;7.41;100.00;93623.50;5067430;28;20214;-74
2022/11/18 01:05:05;;;;;;;13.48;5.82;;;;;;;7.36;100.00;93623.72;5068812;28;20295;-73
2022/11/18 01:07:32;;;;;;;6.43;4.03;;;;;;;7.39;100.00;93617.66;5068545;28;20207;-75
2022/11/18 01:09:59;;;;;;;6.60;4.07;;;;;;;7.24;100.00;93626.38;5069092;28;20218;-75
2022/11/18 01:15:11;;;;;;;7.55;4.68;;;;;;;7.00;100.00;93619.75;5068475;28;20205;-74
2022/11/18 01:17:38;;;;;;;7.18;4.30;;;;;;;6.91;100.00;93619.03;5068954;28;20230;-74
2022/11/18 01:20:05;;;;;;;7.10;4.20;;;;;;;6.95;100.00;93619.97;5072997;28;20238;-75
2022/11/18 01:22:32;;;;;;;5.40;3.05;;;;;;;6.89;100.00;93615.09;5068581;28;20222;-75
2022/11/18 01:24:59;;;;;;;7.72;4.03;;;;;;;6.87;100.00;93618.13;5051869;28;20667;-74
2022/11/18 01:27:27;;;;;;;3.92;3.50;;;;;;;6.68;100.00;93623.19;5052122;28;20211;-74
2022/11/18 01:29:54;;;;;;;7.43;4.82;;;;;;;6.76;100.00;93622.31;5052581;28;20306;-74
2022/11/18 01:32:21;;;;;;;7.97;4.15;;;;;;;6.80;100.00;93617.88;5052140;28;20242;-75
2022/11/18 01:34:47;;;;;;;6.97;3.97;;;;;;;6.89;100.00;93623.16;5052560;28;20212;-74
2022/11/18 01:37:14;;;;;;;9.93;3.67;;;;;;;6.79;100.00;93629.75;5052596;28;20211;-74
2022/11/18 01:39:41;;;;;;;10.82;4.50;;;;;;;6.78;100.00;93620.09;5052359;28;20297;-74
2022/11/18 01:42:13;;;;;;;7.75;4.07;;;;;;;6.71;100.00;93626.00;5052651;28;20289;-74
2022/11/18 01:45:09;;;;;;;6.60;4.22;;;;;;;6.73;100.00;93625.66;5051883;28;20239;-74
2022/11/18 01:47:40;;;;;;;9.57;4.38;;;;;;;6.72;100.00;93616.00;5052065;28;20203;-74
2022/11/18 01:50:08;;;;;;;17.95;5.63;;;;;;;6.92;100.00;93620.63;5056540;28;20742;-73
2022/11/18 01:52:37;;;;;;;10.10;5.20;;;;;;;6.73;100.00;93614.91;5072383;28;20449;-74
2022/11/18 01:55:11;;;;;;;9.43;4.53;;;;;;;6.78;100.00;93615.50;5072147;28;20210;-74
2022/11/18 01:57:38;;;;;;;16.90;5.22;;;;;;;6.89;100.00;93618.59;5071186;28;20202;-74
2022/11/18 02:00:08;;;;;;;11.63;5.53;;;;;;;7.04;100.00;93617.97;5071513;28;20280;-74
2022/11/18 02:02:37;;;;;;;8.65;5.45;;;;;;;7.01;100.00;93615.94;5072121;28;20556;-75
2022/11/18 02:05:06;;;;;;;6.50;4.43;;;;;;;6.95;100.00;93625.34;5071912;28;20252;-75
2022/11/18 02:07:34;;;;;;;9.27;5.22;;;;;;;6.89;100.00;93626.66;5071972;28;20256;-75
2022/11/18 02:10:08;;;;;;;7.13;4.15;;;;;;;6.94;100.00;93625.69;5072137;28;20207;-75
2022/11/18 02:12:38;;;;;;;25.80;6.55;;;;;;;6.85;100.00;93612.28;5071772;28;20749;-76
2022/11/18 02:15:07;;;;;;;7.97;4.82;;;;;;;6.95;100.00;93624.56;5071531;28;20563;-73
2022/11/18 02:17:44;;;;;;;6.70;4.60;;;;;;;7.03;100.00;93627.19;5071209;28;20226;-74
2022/11/18 02:20:35;;;;;;;8.50;4.53;;;;;;;6.91;100.00;93632.50;5070354;28;20230;-73
2022/11/18 02:23:36;;;;;;;9.00;5.03;;;;;;;6.85;100.00;93623.03;5066670;28;20203;-73
2022/11/18 02:26:28;;;;;;;7.20;4.40;;;;;;;6.84;100.00;93628.75;5057649;28;20207;-73
2022/11/18 02:29:03;;;;;;;9.80;5.22;;;;;;;6.73;100.00;93622.97;5054392;28;20597;-73
2022/11/18 02:31:35;;;;;;;7.35;5.22;;;;;;;6.72;100.00;93618.69;5051422;28;20724;-74
2022/11/18 02:34:09;;;;;;;11.48;5.68;;;;;;;6.76;100.00;93625.81;5051392;28;20230;-74
2022/11/18 02:36:42;;;;;;;9.73;5.05;;;;;;;6.73;100.00;93612.22;5051973;28;20204;-75
2022/11/18 02:39:16;;;;;;;8.38;5.30;;;;;;;6.69;100.00;93614.00;5058587;28;20199;-74
2022/11/18 02:41:46;;;;;;;6.30;4.07;;;;;;;6.78;100.00;93612.03;5071020;28;20566;-74
2022/11/18 02:44:16;;;;;;;9.65;4.80;;;;;;;6.77;100.00;93621.22;5071471;28;20206;-74
2022/11/18 02:46:47;;;;;;;6.78;4.30;;;;;;;6.68;100.00;93612.44;5071264;28;20580;-75
2022/11/18 02:49:20;;;;;;;9.30;4.70;;;;;;;6.48;100.00;93613.19;5060742;28;20254;-75
2022/11/18 02:51:49;;;;;;;7.47;4.20;;;;;;;6.47;100.00;93614.28;5051394;28;20226;-75
2022/11/18 02:54:20;;;;;;;15.30;4.00;;;;;;;6.50;100.00;93614.44;5051258;28;20208;-75
2022/11/18 02:56:50;;;;;;;12.77;4.22;;;;;;;6.35;100.00;93601.56;5051331;28;20200;-75
2022/11/18 02:59:19;;;;;;;11.73;5.82;;;;;;;6.43;100.00;93624.91;5050794;28;20273;-74
2022/11/18 03:01:47;;;;;;;9.77;4.30;;;;;;;6.36;100.00;93627.34;5050250;28;20232;-74
2022/11/18 03:04:16;;;;;;;10.55;4.40;;;;;;;6.29;100.00;93629.72;5050742;28;20200;-74
2022/11/18 03:06:48;;;;;;;6.40;3.95;;;;;;;6.16;100.00;93615.41;5051128;28;20207;-75
2022/11/18 03:09:22;;;;;;;6.60;3.25;;;;;;;6.27;100.00;93627.41;5064015;28;20282;-74
2022/11/18 03:11:56;;;;;;;7.72;4.13;;;;;;;6.03;100.00;93619.13;5050389;28;20369;-74
2022/11/18 03:14:35;;;;;;;5.53;3.63;;;;;;;6.07;100.00;93622.75;5050857;28;20405;-74
2022/11/18 03:17:10;;;;;;;7.05;4.25;;;;;;;5.90;100.00;93615.53;5050630;28;20257;-74
2022/11/18 03:19:49;;;;;;;6.40;3.85;;;;;;;6.00;100.00;93619.78;5056176;28;20662;-74
2022/11/18 03:22:23;;;;;;;5.45;3.78;;;;;;;6.03;100.00;93611.06;5056533;28;20199;-74
2022/11/18 03:24:56;;;;;;;7.90;5.20;;;;;;;5.93;100.00;93614.09;5050577;28;20257;-74
2022/11/18 03:27:30;;;;;;;7.80;3.72;;;;;;;6.01;100.00;93613.31;5064057;28;20195;-73
2022/11/18 03:30:03;;;;;;;6.57;4.22;;;;;;;6.05;100.00;93619.59;5049476;28;20239;-73
2022/11/18 03:32:33;;;;;;;7.47;4.80;;;;;;;6.00;100.00;93617.09;5049676;28;20309;-74
2022/11/18 03:35:04;;;;;;;6.97;4.57;;;;;;;6.03;100.00;93611.84;5050389;28;20197;-74
2022/11/18 03:37:34;;;;;;;11.45;5.35;;;;;;;6.04;100.00;93615.31;5050128;28;20207;-74
2022/11/18 03:40:06;;;;;;;7.30;4.75;;;;;;;6.03;100.00;93605.69;5049226;28;20621;-74
2022/11/18 03:42:38;;;;;;;4.18;3.17;;;;;;;5.75;100.00;93615.25;5049137;28;20254;-74
2022/11/18 03:45:12;;;;;;;8.82;3.95;;;;;;;5.89;100.00;93610.47;5051480;28;20207;-74
2022/11/18 03:47:42;;;;;;;4.75;3.33;;;;;;;5.76;100.00;93616.81;5059609;28;20203;-74
2022/11/18 03:50:14;;;;;;;6.88;4.07;;;;;;;5.83;100.00;93607.19;5054111;28;20288;-74
2022/11/18 03:52:42;;;;;;;8.05;4.75;;;;;;;5.74;100.00;93597.59;5069282;28;20612;-74
2022/11/18 03:55:14;;;;;;;6.35;4.38;;;;;;;5.71;100.00;93605.16;5069382;28;20213;-74
2022/11/18 03:57:49;;;;;;;9.68;5.05;;;;;;;5.70;100.00;93598.22;5069718;28;20199;-74
2022/11/18 04:00:19;;;;;;;6.70;4.43;;;;;;;5.61;100.00;93605.50;5069354;28;20276;-74
2022/11/18 04:02:53;;;;;;;5.82;3.38;;;;;;;5.68;100.00;93599.66;5054178;28;20206;-75
2022/11/18 04:05:20;;;;;;;11.02;5.28;;;;;;;5.80;100.00;93601.66;5049404;28;20678;-74
2022/11/18 04:07:55;;;;;;;7.85;4.55;;;;;;;5.97;100.00;93593.53;5049658;28;20204;-75
2022/11/18 04:10:28;;;;;;;8.43;3.80;;;;;;;5.94;100.00;93610.31;5049547;28;20203;-74
2022/11/18 04:13:01;;;;;;;10.45;4.88;;;;;;;5.55;100.00;93601.44;5049362;28;20249;-74
2022/11/18 04:15:31;;;;;;;7.15;4.85;;;;;;;5.43;100.00;93598.63;5049351;28;20229;-74
2022/11/18 04:17:58;;;;;;;9.95;4.15;;;;;;;5.42;100.00;93607.78;5049519;28;20266;-74
2022/11/18 04:20:25;;;;;;;2.40;1.67;;;;;;;5.38;100.00;93604.16;5061871;28;20708;-76
2022/11/18 04:22:52;;;;;;;7.20;4.05;;;;;;;5.45;100.00;93601.78;5049966;28;20217;-74
2022/11/18 04:25:18;;;;;;;8.52;4.22;;;;;;;5.50;100.00;93614.22;5049394;28;20722;-74
2022/11/18 04:27:45;;;;;;;7.70;4.68;;;;;;;5.45;100.00;93596.41;5049155;28;20286;-74
2022/11/18 04:30:13;;;;;;;7.35;4.95;;;;;;;5.68;100.00;93602.34;5062414;28;20620;-73
2022/11/18 04:32:41;;;;;;;10.98;6.35;;;;;;;5.70;100.00;93614.34;5047581;28;20240;-75
2022/11/18 04:35:09;;;;;;;32.28;14.65;;;;;;;5.34;100.00;93613.94;5049048;28;20250;-74
2022/11/18 04:37:35;;;;;;;9.93;5.65;;;;;;;5.32;100.00;93614.28;5048595;28;20214;-73
2022/11/18 04:40:02;;;;;;;8.77;5.25;;;;;;;5.48;100.00;93617.22;5048647;28;20571;-74
2022/11/18 04:42:29;;;;;;;17.13;5.82;;;;;;;5.76;100.00;93611.47;5048981;28;20204;-74
2022/11/18 04:44:56;;;;;;;11.68;6.68;;;;;;;5.79;100.00;93626.94;5062706;28;20195;-75
2022/11/18 04:47:22;;;;;;;7.20;4.60;;;;;;;5.61;100.00;93628.88;5050380;28;20302;-75
2022/11/18 04:49:51;;;;;;;20.30;5.63;;;;;;;5.53;100.00;93614.38;5054326;28;20203;-77
2022/11/18 04:52:17;;;;;;;21.10;9.70;;;;;;;5.36;100.00;93630.53;5064606;28;20539;-78
2022/11/18 04:54:44;;;;;;;11.18;7.53;;;;;;;5.55;100.00;93627.50;5057872;28;20256;-77
2022/11/18 04:57:11;;;;;;;14.68;7.97;;;;;;;5.63;100.00;93630.16;5048752;28;20212;-74
2022/11/18 04:59:38;;;;;;;14.57;6.50;;;;;;;5.52;100.00;93639.66;5064769;28;20229;-76
2022/11/18 05:02:05;;;;;;;19.27;8.85;;;;;;;5.59;100.00;93620.38;5058666;28;20280;-78
2022/11/18 05:04:34;;;;;;;13.38;6.97;;;;;;;5.71;100.00;93637.41;5047940;28;20230;-76
2022/11/18 05:07:04;;;;;;;19.30;8.68;;;;;;;5.75;100.00;93620.63;5058331;28;20211;-76
2022/11/18 05:09:31;;;;;;;19.75;7.70;;;;;;;5.84;100.00;93629.47;5063590;28;20616;-77
2022/11/18 05:14:42;;;;;;;20.15;7.88;;;;;;;5.90;100.00;93628.97;5051082;28;20202;-76
2022/11/18 05:17:09;;;;;;;18.73;9.02;;;;;;;5.99;100.00;93628.97;5059141;28;20241;-77
2022/11/18 05:19:37;;;;;;;14.15;7.60;;;;;;;6.13;100.00;93634.91;5058494;28;20350;-77
2022/11/18 05:22:06;;;;;;;16.30;7.28;;;;;;;6.03;100.00;93640.63;5064193;28;20231;-77
2022/11/18 05:24:32;;;;;;;16.85;8.95;;;;;;;6.10;100.00;93638.22;5061178;28;20191;-78
2022/11/18 05:26:59;;;;;;;18.95;9.77;;;;;;;6.18;100.00;93639.28;5053631;28;21056;-78
2022/11/18 05:29:26;;;;;;;23.35;9.70;;;;;;;6.15;100.00;93635.34;5048700;28;20224;-78
2022/11/18 05:31:53;;;;;;;15.13;8.45;;;;;;;6.30;100.00;93642.84;5060800;28;20223;-77
2022/11/18 05:34:20;;;;;;;22.58;7.45;;;;;;;6.43;100.00;93641.84;5055289;28;20723;-77
2022/11/18 05:36:46;;;;;;;12.45;7.63;;;;;;;6.47;100.00;93646.56;5054175;28;20215;-77
2022/11/18 05:39:15;;;;;;;13.82;7.68;;;;;;;6.54;100.00;93641.47;5048691;28;20211;-77
2022/11/18 05:44:26;;;;;;;18.65;7.35;;;;;;;6.51;100.00;93642.13;5048806;28;20334;-78
2022/11/18 05:46:53;;;;;;;12.55;7.25;;;;;;;6.56;100.00;93631.19;5048488;28;20214;-79
2022/11/18 05:49:20;;;;;;;16.58;8.20;;;;;;;6.30;100.00;93626.72;5048705;28;20294;-79
2022/11/18 05:51:46;;;;;;;16.00;8.32;;;;;;;6.53;100.00;93621.06;5066871;28;20608;-78
2022/11/18 05:54:16;;;;;;;12.65;6.32;;;;;;;6.39;100.00;93634.75;5068746;28;20218;-79
2022/11/18 05:56:45;;;;;;;9.15;6.00;;;;;;;6.34;100.00;93616.91;5068772;28;20282;-79
2022/11/18 05:59:13;;;;;;;11.55;6.00;;;;;;;6.54;100.00;93626.13;5068705;28;20568;-79
2022/11/18 06:01:44;;;;;;;10.82;6.80;;;;;;;6.77;100.00;93640.06;5068798;28;20227;-79
2022/11/18 06:04:15;;;;;;;15.23;6.80;;;;;;;7.02;100.00;93628.28;5058346;28;20195;-79
2022/11/18 06:06:43;;;;;;;12.63;6.60;;;;;;;6.94;100.00;93633.75;5052014;28;20588;-78
2022/11/18 06:09:11;;;;;;;19.63;8.18;;;;;;;7.10;100.00;93632.03;5051666;28;20214;-78
2022/11/18 06:11:43;;;;;;;16.13;6.53;;;;;;;7.00;100.00;93633.22;5051915;28;20207;-78
2022/11/18 06:14:15;;;;;;;20.42;8.45;;;;;;;6.92;100.00;93625.22;5051656;28;20269;-79
2022/11/18 06:16:46;;;;;;;12.23;7.35;;;;;;;7.23;100.00;93625.59;5051847;28;20215;-78
2022/11/18 06:19:13;;;;;;;8.32;4.53;;;;;;;7.04;100.00;93601.81;5051602;28;20257;-78
2022/11/18 06:21:39;;;;;;;12.38;7.28;;;;;;;7.05;100.00;93608.78;5052166;28;20231;-79
2022/11/18 06:24:08;;;;;;;13.20;8.23;;;;;;;7.19;100.00;93627.38;5052572;28;20199;-79
2022/11/18 06:26:36;;;;;;;10.73;6.38;;;;;;;7.23;100.00;93630.19;5051478;28;20208;-79
2022/11/18 06:29:07;;;;;;;15.10;8.82;;;;;;;7.35;100.00;93627.53;5064759;28;20210;-79
2022/11/18 06:31:34;;;;;;;25.02;9.05;;;;;;;7.02;100.00;93620.22;5062545;28;20195;-77
2022/11/18 06:34:01;;;;;;;22.30;8.75;;;;;;;7.40;100.00;93619.22;5054369;28;20204;-77
2022/11/18 06:36:28;;;;;;;15.15;8.15;;;;;;;7.56;100.00;93617.47;5062506;28;20199;-78
2022/11/18 06:38:54;;;;;;;15.93;8.85;;;;;;;7.64;100.00;93613.94;5053221;28;20603;-77
2022/11/18 06:41:21;;;;;;;11.27;6.38;;;;;;;7.64;100.00;93603.16;5051822;28;20239;-77
2022/11/18 06:43:47;;;;;;;21.42;7.50;;;;;;;7.58;100.00;93612.56;5056024;28;20249;-77
2022/11/18 06:49:01;;;;;;;14.50;8.20;;;;;;;7.75;100.00;93620.47;5051984;28;20221;-80
2022/11/18 06:51:28;;;;;;;17.73;9.23;;;;;;;7.82;100.00;93615.28;5051581;28;20254;-78
2022/11/18 06:53:55;;;;;;;16.67;7.65;;;;;;;7.88;100.00;93609.69;5050600;28;20265;-79
2022/11/18 06:56:22;;;;;;;17.20;9.73;;;;;;;8.18;100.00;93619.16;5050775;28;20219;-79
2022/11/18 06:58:56;;;;;;;15.88;9.55;;;;;;;7.98;100.00;93617.34;5051012;28;20706;-79
2022/11/18 07:01:26;;;;;;;17.73;9.05;;;;;;;8.30;100.00;93627.25;5051845;28;20227;-78
2022/11/18 07:03:52;;;;;;;18.55;8.65;;;;;;;8.14;100.00;93618.25;5051554;28;20203;-79
2022/11/18 07:06:21;;;;;;;15.60;6.13;;;;;;;8.18;100.00;93621.84;5050637;28;20208;-79
2022/11/18 07:08:48;;;;;;;15.70;8.52;;;;;;;8.22;100.00;93617.34;5050654;28;20705;-79
2022/11/18 07:11:18;;;;;;;21.70;8.38;;;;;;;8.35;100.00;93624.34;5051245;28;20207;-79
2022/11/18 07:13:46;;;;;;;13.70;8.48;;;;;;;8.42;100.00;93616.47;5063310;28;20237;-79
2022/11/18 07:16:15;;;;;;;17.85;9.43;;;;;;;8.54;100.00;93615.69;5051991;28;20285;-79
2022/11/18 07:18:44;;;;;;;19.73;9.93;;;;;;;8.99;100.00;93609.31;5050568;28;20211;-79
2022/11/18 07:21:13;;;;;;;26.75;10.75;;;;;;;9.21;100.00;93598.75;5056973;28;20767;-79
2022/11/18 07:23:40;;;;;;;17.63;9.02;;;;;;;8.86;100.00;93581.53;5057038;28;20204;-79
2022/11/18 07:26:07;;;;;;;22.17;10.57;;;;;;;9.27;100.00;93574.97;5051035;28;20215;-78
2022/11/18 07:28:34;;;;;;;21.88;9.75;;;;;;;9.23;100.00;93576.78;5064451;28;20566;-78
2022/11/18 07:31:03;;;;;;;20.83;8.98;;;;;;;9.43;100.00;93572.31;5050068;28;20235;-75
2022/11/18 07:33:31;;;;;;;23.55;9.40;;;;;;;9.65;100.00;93584.47;5048636;28;20802;-75
2022/11/18 07:36:02;;;;;;;14.45;7.35;;;;;;;9.86;100.00;93553.31;5048250;28;20203;-76
2022/11/18 07:38:29;;;;;;;22.42;8.15;;;;;;;9.60;100.00;93551.13;5050097;28;20203;-76
2022/11/18 07:40:56;;;;;;;20.60;6.72;;;;;;;9.59;100.00;93559.59;5050131;28;20257;-76
2022/11/18 07:43:23;;;;;;;21.15;7.93;;;;;;;9.35;100.00;93576.72;5064031;28;20203;-78
2022/11/18 07:45:49;;;;;;;12.85;5.93;;;;;;;9.33;100.00;93546.56;5049742;28;20616;-76
2022/11/18 07:48:16;;;;;;;24.55;10.20;;;;;;;9.38;100.00;93576.03;5050084;28;20748;-76
2022/11/18 07:50:43;;;;;;;26.35;10.27;;;;;;;9.56;100.00;93571.91;5059140;28;20272;-77
2022/11/18 07:53:11;;;;;;;23.70;10.75;;;;;;;9.66;100.00;93576.00;5069892;28;20207;-76
2022/11/18 07:55:38;;;;;;;10.48;4.65;;;;;;;9.29;100.00;93566.53;5070543;28;20214;-75
2022/11/18 07:58:04;;;;;;;23.48;8.57;;;;;;;9.39;100.00;93593.03;5069809;28;20278;-75
2022/11/18 08:00:31;;;;;;;23.77;7.50;;;;;;;9.52;100.00;93589.16;5070203;28;20207;-75
2022/11/18 08:02:58;;;;;;;20.50;8.65;;;;;;;9.82;100.00;93605.78;5053025;28;20698;-75
2022/11/18 08:05:24;;;;;;;30.83;11.27;;;;;;;9.85;100.00;93616.66;5049798;28;20655;-76
2022/11/18 08:07:51;;;;;;;20.38;8.40;;;;;;;10.04;100.00;93596.25;5049589;28;20222;-75
2022/11/18 08:10:19;;;;;;;29.70;9.65;;;;;;;9.70;100.00;93609.34;5049289;28;20219;-76
2022/11/18 08:12:46;;;;;;;23.23;10.05;;;;;;;9.69;100.00;93624.00;5049412;28;20211;-75
2022/11/18 08:15:13;;;;;;;31.10;10.88;;;;;;;9.93;100.00;93634.66;5049847;28;20203;-76
2022/11/18 08:17:40;;;;;;;15.43;8.65;;;;;;;9.78;100.00;93616.50;5049922;28;20214;-76
2022/11/18 08:20:07;;;;;;;24.10;11.45;;;;;;;9.97;100.00;93613.91;5061193;28;20295;-76
2022/11/18 08:22:34;;;;;;;25.25;10.68;;;;;;;9.43;100.00;93580.44;5051572;28;20739;-77
2022/11/18 08:25:01;;;;;;;21.23;9.65;;;;;;;9.40;100.00;93589.22;5049641;28;20222;-76
2022/11/18 08:27:29;;;;;;;32.17;12.30;;;;;;;9.55;100.00;93602.78;5062979;28;20229;-76
2022/11/18 08:29:55;;;;;;;27.15;10.80;;;;;;;9.62;100.00;93591.34;5049257;28;20223;-76
2022/11/18 08:32:22;;;;;;;35.67;11.35;;;;;;;9.73;100.00;93592.41;5049121;28;20346;-76
2022/11/18 08:34:50;;;;;;;31.35;12.20;;;;;;;9.82;100.00;93595.75;5049736;28;20204;-76
2022/11/18 08:37:17;;;;;;;26.02;12.05;;;;;;;9.52;100.00;93586.44;5048969;28;20210;-76
2022/11/18 08:39:44;;;;;;;27.60;9.73;;;;;;;9.50;100.00;93572.50;5048417;28;20620;-76
2022/11/18 08:42:11;;;;;;;26.02;11.30;;;;;;;9.67;100.00;93574.88;5048148;28;20246;-75
2022/11/18 08:44:39;;;;;;;33.97;10.82;;;;;;;9.72;100.00;93568.41;5049106;28;20744;-76
2022/11/18 08:47:06;;;;;;;25.80;12.32;;;;;;;9.66;100.00;93559.78;5062778;28;20204;-76
2022/11/18 08:49:33;;;;;;;32.80;9.98;;;;;;;9.61;100.00;93554.63;5048882;28;20827;-75
2022/11/18 08:52:00;;;;;;;29.30;12.60;;;;;;;9.62;100.00;93548.88;5068763;28;20241;-75
2022/11/18 08:54:26;;;;;;;30.02;12.40;;;;;;;9.46;100.00;93536.47;5068315;28;20206;-75
2022/11/18 08:56:53;;;;;;;28.02;10.15;;;;;;;9.52;100.00;93535.88;5068720;28;20260;-75
2022/11/18 08:59:20;;;;;;;26.42;11.82;;;;;;;9.72;100.00;93525.94;5068599;28;20614;-75
2022/11/18 09:01:48;;;;;;;21.30;10.07;;;;;;;9.67;100.00;93518.09;5060749;28;20223;-75
2022/11/18 09:04:15;;;;;;;29.58;11.23;;;;;;;9.53;100.00;93501.53;5068629;28;20249;-76
2022/11/18 09:06:42;;;;;;;25.85;11.68;;;;;;;9.72;100.00;93517.03;5068960;28;20206;-76
2022/11/18 09:09:08;;;;;;;26.63;12.27;;;;;;;9.89;100.00;93512.06;5068555;28;20264;-76
2022/11/18 09:11:37;;;;;;;24.38;11.18;;;;;;;10.04;100.00;93496.94;5067978;28;20264;-76
2022/11/18 09:14:04;;;;;;;31.92;12.95;;;;;;;9.95;100.00;93497.16;5067403;28;20202;-76
2022/11/18 09:16:33;;;;;;;24.27;11.88;;;;;;;10.26;100.00;93490.91;5069296;28;20214;-75
2022/11/18 09:19:02;;;;;;;25.77;10.73;;;;;;;10.20;100.00;93486.13;5068834;28;20731;-75
2022/11/18 09:21:28;;;;;;;30.60;11.05;;;;;;;10.38;100.00;93487.31;5068884;28;20210;-77
2022/11/18 09:23:55;;;;;;;25.70;11.52;;;;;;;10.41;100.00;93497.41;5068723;28;20210;-76
2022/11/18 09:26:23;;;;;;;7.85;5.03;;;;;;;10.20;100.00;93492.31;5069277;28;20236;-75
2022/11/18 09:28:53;;;;;;;19.60;8.40;;;;;;;9.87;100.00;93487.28;5066521;28;20280;-76
2022/11/18 09:31:20;;;;;;;23.83;9.65;;;;;;;9.79;100.00;93487.47;5048372;28;20208;-76
2022/11/18 09:33:47;;;;;;;30.40;11.65;;;;;;;9.77;100.00;93478.91;5048296;28;20779;-76
2022/11/18 09:36:17;;;;;;;27.92;13.15;;;;;;;10.14;100.00;93482.09;5049012;28;20666;-76
2022/11/18 09:38:43;;;;;;;26.80;13.68;;;;;;;10.76;100.00;93486.56;5050799;28;20213;-76
2022/11/18 09:41:22;;;;;;;24.17;10.68;;;;;;;11.10;100.00;93474.03;5053011;28;20278;-77
2022/11/18 09:44:00;;;;;;;19.92;7.60;;;;;;;11.08;100.00;93462.78;5051810;28;20297;-76
2022/11/18 09:46:39;;;;;;;22.95;10.27;;;;;;;11.20;100.00;93454.50;5052867;28;20204;-77
2022/11/18 09:49:14;;;;;;;28.05;8.55;;;;;;;11.28;100.00;93437.22;5052427;28;20249;-77
2022/11/18 09:51:45;;;;;;;17.10;7.82;;;;;;;11.17;100.00;93425.41;5052600;28;20207;-75
2022/11/18 09:54:20;;;;;;;25.05;11.63;;;;;;;11.51;100.00;93422.88;5052487;28;20226;-76
2022/11/18 09:56:48;;;;;;;15.85;9.60;;;;;;;11.61;98.25;93425.00;5052512;28;20207;-76
2022/11/18 09:59:17;;;;;;;19.15;8.80;;;;;;;11.66;96.59;93435.50;5051753;28;20213;-78
2022/11/18 10:01:45;;;;;;;25.77;9.38;;;;;;;11.31;95.47;93425.66;5051161;28;20204;-77
2022/11/18 10:04:14;;;;;;;15.23;8.10;;;;;;;11.27;96.50;93416.66;5052212;28;20208;-76
2022/11/18 10:06:43;;;;;;;29.67;9.07;;;;;;;11.43;96.97;93432.03;5058973;28;20615;-77
2022/11/18 10:09:30;;;;;;;23.00;9.80;;;;;;;11.46;98.33;93423.19;5072327;28;20211;-77
2022/11/18 10:12:23;;;;;;;22.40;8.63;;;;;;;11.60;95.73;93426.13;5071935;28;20210;-78
2022/11/18 10:15:03;;;;;;;18.52;10.48;;;;;;;12.05;94.76;93423.34;5068367;28;20570;-77
2022/11/18 10:17:45;;;;;;;24.52;9.85;;;;;;;12.33;92.45;93414.81;5055930;28;20596;-77
2022/11/18 10:20:23;;;;;;;23.45;9.63;;;;;;;12.42;90.27;93428.91;5063249;28;20651;-78
2022/11/18 10:22:56;;;;;;;17.17;8.90;;;;;;;12.39;88.15;93401.72;5053182;28;20265;-78
2022/11/18 10:25:23;;;;;;;19.08;8.00;;;;;;;12.50;88.65;93401.84;5051864;28;20308;-78
2022/11/18 10:27:51;;;;;;;15.38;7.60;;;;;;;12.32;87.15;93386.09;5052243;28;20204;-78
2022/11/18 10:30:20;;;;;;;29.25;10.20;;;;;;;12.32;89.08;93385.31;5051647;28;20289;-78
2022/11/18 10:32:54;;;;;;;21.50;9.38;;;;;;;12.49;87.97;93384.75;5058699;28;20571;-78
2022/11/18 10:35:26;;;;;;;21.70;9.73;;;;;;;12.46;89.04;93380.06;5056713;28;20207;-77
2022/11/18 10:38:05;;;;;;;24.25;10.50;;;;;;;12.28;89.53;93381.78;5052143;28;20203;-77
2022/11/18 10:40:34;;;;;;;24.00;10.98;;;;;;;12.61;89.09;93387.22;5051897;28;20663;-77
2022/11/18 10:43:00;;;;;;;15.82;6.07;;;;;;;12.61;87.38;93376.34;5051788;28;20235;-76
2022/11/18 10:45:30;;;;;;;18.00;10.00;;;;;;;12.49;88.46;93357.59;5051308;28;20567;-78
2022/11/18 10:48:12;;;;;;;14.50;8.23;;;;;;;12.56;88.30;93384.84;5051551;28;20211;-77
2022/11/18 10:50:40;;;;;;;21.33;10.63;;;;;;;13.04;87.32;93376.81;5050317;28;20203;-77
2022/11/18 10:53:30;;;;;;;14.68;7.05;;;;;;;13.33;85.22;93339.81;5051736;28;20215;-76
2022/11/18 10:55:59;;;;;;;15.30;7.53;;;;;;;13.29;85.97;93328.91;5051492;28;20562;-78
2022/11/18 10:58:26;;;;;;;22.80;8.80;;;;;;;13.27;85.66;93339.38;5051153;28;20207;-78
2022/11/18 11:01:03;;;;;;;31.92;9.23;;;;;;;13.37;85.93;93336.00;5051513;28;20211;-78
2022/11/18 11:03:36;;;;;;;18.35;8.40;;;;;;;13.75;85.60;93329.25;5058352;28;20218;-78
2022/11/18 11:06:29;;;;;;;19.17;10.48;;;;;;;14.26;84.17;93330.31;5056306;28;20299;-77
2022/11/18 11:09:00;;;;;;;17.08;8.63;;;;;;;14.78;82.89;93340.66;5051543;28;20238;-78
2022/11/18 11:11:29;;;;;;;26.50;10.38;;;;;;;14.89;80.83;93340.69;5050858;28;20298;-77
2022/11/18 11:14:12;;;;;;;15.77;7.93;;;;;;;14.90;79.56;93343.03;5051570;28;20316;-76
2022/11/18 11:16:45;;;;;;;18.67;8.13;;;;;;;14.73;79.92;93319.25;5050687;28;20203;-78
2022/11/18 11:19:14;;;;;;;38.67;18.27;;;;;;;14.53;80.00;93320.72;5050450;28;20200;-77
2022/11/18 11:21:41;;;;;;;26.02;11.13;;;;;;;14.45;79.24;93321.88;5060799;28;20647;-77
2022/11/18 11:24:12;;;;;;;30.00;12.55;;;;;;;14.76;80.52;93315.72;5066353;28;20227;-76
2022/11/18 11:26:47;;;;;;;34.08;12.85;;;;;;;14.77;78.64;93325.47;5050222;28;20265;-75
2022/11/18 11:29:29;;;;;;;19.05;9.02;;;;;;;14.79;77.75;93314.19;5050839;28;20231;-78
2022/11/18 11:32:09;;;;;;;18.25;9.30;;;;;;;14.61;77.43;93297.00;5052017;28;20281;-79
2022/11/18 11:34:44;;;;;;;23.38;11.48;;;;;;;14.44;78.64;93299.28;5060539;28;20245;-78
2022/11/18 11:37:21;;;;;;;26.15;11.63;;;;;;;14.63;78.67;93305.56;5051012;28;20284;-76
2022/11/18 11:40:00;;;;;;;42.65;18.25;;;;;;;14.70;76.95;93311.81;5050410;28;20215;-78
2022/11/18 11:42:39;;;;;;;20.17;10.77;;;;;;;14.96;73.66;93293.56;5050012;28;20220;-77
2022/11/18 11:45:19;;;;;;;28.40;11.77;;;;;;;14.86;74.44;93304.09;5050529;28;20414;-77
2022/11/18 11:48:05;;;;;;;23.63;13.25;;;;;;;14.58;73.36;93293.09;5049999;28;20199;-79
2022/11/18 11:50:57;;;;;;;8.88;5.00;;;;;;;14.78;72.89;93298.97;5050571;28;20532;-78
2022/11/18 11:53:52;;;;;;;22.35;8.20;;;;;;;14.45;74.66;93286.44;5055181;28;20211;-77